sensor_id;sensor_type;location;lat;lon;timestamp;pressure;altitude;pressure_sealevel;temperature;humidity
25232;BME280;13176;51.140;6.290;2023-05-10T00:00:39;100118.88;;;16.34;100.00
25232;BME280;13176;51.140;6.290;2023-05-10T00:03:06;100136.53;;;16.51;100.00
25232;BME280;13176;51.140;6.290;2023-05-10T00:05:32;100054.22;;;16.09;100.00
25232;BME280;13176;51.140;6.290;2023-05-10T00:07:59;100155.47;;;16.59;100.00
25232;BME280;13176;51.140;6.290;2023-05-10T00:10:25;100143.44;;;16.53;100.00
25232;BME280;13176;51.140;6.290;2023-05-10T00:12:51;100164.03;;;16.64;100.00
25232;BME280;13176;51.140;6.290;2023-05-10T00:15:18;100162.31;;;16.63;100.00
25232;BME280;13176;51.140;6.290;2023-05-10T00:17:44;100124.72;;;16.41;100.00
25232;BME280;13176;51.140;6.290;2023-05-10T00:20:11;100106.44;;;16.38;100.00
25232;BME280;13176;51.140;6.290;2023-05-10T00:22:37;100152.75;;;16.60;100.00
25232;BME280;13176;51.140;6.290;2023-05-10T00:25:05;100037.59;;;15.90;100.00
25232;BME280;13176;51.140;6.290;2023-05-10T00:27:32;100099.66;;;16.32;100.00
25232;BME280;13176;51.140;6.290;2023-05-10T00:29:58;100098.28;;;16.24;100.00
25232;BME280;13176;51.140;6.290;2023-05-10T00:32:25;100128.63;;;16.51;100.00
25232;BME280;13176;51.140;6.290;2023-05-10T00:34:51;100153.47;;;16.64;100.00
25232;BME280;13176;51.140;6.290;2023-05-10T00:37:18;100088.94;;;16.37;100.00
25232;BME280;13176;51.140;6.290;2023-05-10T00:39:44;100073.03;;;16.20;100.00
25232;BME280;13176;51.140;6.290;2023-05-10T00:42:10;100144.66;;;16.65;100.00
25232;BME280;13176;51.140;6.290;2023-05-10T00:44:37;100087.38;;;16.31;100.00
25232;BME280;13176;51.140;6.290;2023-05-10T00:47:03;100149.78;;;16.49;100.00
25232;BME280;13176;51.140;6.290;2023-05-10T00:49:30;100142.22;;;16.60;100.00
25232;BME280;13176;51.140;6.290;2023-05-10T00:51:57;100129.50;;;16.51;100.00
25232;BME280;13176;51.140;6.290;2023-05-10T00:54:24;100084.19;;;16.25;100.00
25232;BME280;13176;51.140;6.290;2023-05-10T00:56:51;100106.22;;;16.42;100.00
25232;BME280;13176;51.140;6.290;2023-05-10T00:59:18;100135.81;;;16.66;100.00
25232;BME280;13176;51.140;6.290;2023-05-10T01:01:45;100074.59;;;16.24;100.00
25232;BME280;13176;51.140;6.290;2023-05-10T01:04:12;100163.59;;;16.73;100.00
25232;BME280;13176;51.140;6.290;2023-05-10T01:06:40;100102.63;;;16.25;100.00
25232;BME280;13176;51.140;6.290;2023-05-10T01:09:07;100151.00;;;16.61;100.00
25232;BME280;13176;51.140;6.290;2023-05-10T01:11:38;100159.03;;;16.58;100.00
25232;BME280;13176;51.140;6.290;2023-05-10T01:14:04;100159.44;;;16.67;100.00
25232;BME280;13176;51.140;6.290;2023-05-10T01:16:36;100029.63;;;15.92;100.00
25232;BME280;13176;51.140;6.290;2023-05-10T01:19:05;100098.06;;;16.28;100.00
25232;BME280;13176;51.140;6.290;2023-05-10T01:22:14;100155.09;;;16.66;100.00
25232;BME280;13176;51.140;6.290;2023-05-10T01:25:11;100163.88;;;16.67;100.00
25232;BME280;13176;51.140;6.290;2023-05-10T01:33:30;100119.25;;;16.45;100.00
25232;BME280;13176;51.140;6.290;2023-05-10T01:38:42;100161.25;;;16.67;100.00
25232;BME280;13176;51.140;6.290;2023-05-10T01:41:16;100162.03;;;16.69;100.00
25232;BME280;13176;51.140;6.290;2023-05-10T01:43:57;100151.91;;;16.60;100.00
25232;BME280;13176;51.140;6.290;2023-05-10T01:46:35;100172.91;;;16.61;100.00
25232;BME280;13176;51.140;6.290;2023-05-10T01:49:08;100168.38;;;16.65;100.00
25232;BME280;13176;51.140;6.290;2023-05-10T01:51:46;100157.19;;;16.60;100.00
25232;BME280;13176;51.140;6.290;2023-05-10T01:54:15;100140.88;;;16.52;100.00
25232;BME280;13176;51.140;6.290;2023-05-10T01:56:43;100160.59;;;16.62;100.00
25232;BME280;13176;51.140;6.290;2023-05-10T01:59:13;100123.31;;;16.34;100.00
25232;BME280;13176;51.140;6.290;2023-05-10T02:01:41;100150.44;;;16.54;100.00
25232;BME280;13176;51.140;6.290;2023-05-10T02:04:09;100128.56;;;16.34;100.00
25232;BME280;13176;51.140;6.290;2023-05-10T02:06:38;100148.63;;;16.55;100.00
25232;BME280;13176;51.140;6.290;2023-05-10T02:09:06;100143.22;;;16.58;100.00
25232;BME280;13176;51.140;6.290;2023-05-10T02:11:33;100125.22;;;16.49;100.00
25232;BME280;13176;51.140;6.290;2023-05-10T02:14:01;100157.81;;;16.65;100.00
25232;BME280;13176;51.140;6.290;2023-05-10T02:16:28;100107.50;;;16.34;100.00
25232;BME280;13176;51.140;6.290;2023-05-10T02:18:58;100110.19;;;16.32;100.00
25232;BME280;13176;51.140;6.290;2023-05-10T02:21:26;100165.88;;;16.62;100.00
25232;BME280;13176;51.140;6.290;2023-05-10T02:23:54;100112.00;;;16.32;100.00
25232;BME280;13176;51.140;6.290;2023-05-10T02:26:21;100077.72;;;16.13;100.00
25232;BME280;13176;51.140;6.290;2023-05-10T02:28:50;100138.03;;;16.56;100.00
25232;BME280;13176;51.140;6.290;2023-05-10T02:31:18;100166.00;;;16.59;100.00
25232;BME280;13176;51.140;6.290;2023-05-10T02:33:47;100070.47;;;16.00;100.00
25232;BME280;13176;51.140;6.290;2023-05-10T02:36:15;100164.31;;;16.58;100.00
25232;BME280;13176;51.140;6.290;2023-05-10T02:38:43;100089.09;;;16.14;100.00
25232;BME280;13176;51.140;6.290;2023-05-10T02:41:11;100055.09;;;15.91;100.00
25232;BME280;13176;51.140;6.290;2023-05-10T02:43:40;100083.13;;;16.10;100.00
25232;BME280;13176;51.140;6.290;2023-05-10T02:46:07;100179.69;;;16.67;100.00
25232;BME280;13176;51.140;6.290;2023-05-10T02:48:33;100174.56;;;16.64;100.00
25232;BME280;13176;51.140;6.290;2023-05-10T02:51:04;100172.72;;;16.66;100.00
25232;BME280;13176;51.140;6.290;2023-05-10T02:53:34;100112.63;;;16.37;100.00
25232;BME280;13176;51.140;6.290;2023-05-10T02:56:05;100098.94;;;16.29;100.00
25232;BME280;13176;51.140;6.290;2023-05-10T02:58:37;100080.00;;;16.21;100.00
25232;BME280;13176;51.140;6.290;2023-05-10T03:01:03;100115.50;;;16.31;100.00
25232;BME280;13176;51.140;6.290;2023-05-10T03:03:30;100097.56;;;16.20;100.00
25232;BME280;13176;51.140;6.290;2023-05-10T03:05:56;100100.91;;;16.24;100.00
25232;BME280;13176;51.140;6.290;2023-05-10T03:08:24;100166.72;;;16.62;100.00
25232;BME280;13176;51.140;6.290;2023-05-10T03:13:52;100121.09;;;16.23;100.00
25232;BME280;13176;51.140;6.290;2023-05-10T03:16:27;100191.78;;;16.71;100.00
25232;BME280;13176;51.140;6.290;2023-05-10T03:19:06;100121.59;;;16.33;100.00
25232;BME280;13176;51.140;6.290;2023-05-10T03:21:38;100127.84;;;16.49;100.00
25232;BME280;13176;51.140;6.290;2023-05-10T03:24:08;100191.06;;;16.86;100.00
25232;BME280;13176;51.140;6.290;2023-05-10T03:26:38;100145.22;;;16.53;100.00
25232;BME280;13176;51.140;6.290;2023-05-10T03:29:06;100155.47;;;16.59;100.00
25232;BME280;13176;51.140;6.290;2023-05-10T03:31:34;100186.53;;;16.71;100.00
25232;BME280;13176;51.140;6.290;2023-05-10T03:34:00;100196.59;;;16.80;100.00
25232;BME280;13176;51.140;6.290;2023-05-10T03:36:27;100122.25;;;16.18;100.00
25232;BME280;13176;51.140;6.290;2023-05-10T03:38:53;100196.19;;;16.70;100.00
25232;BME280;13176;51.140;6.290;2023-05-10T03:41:20;100179.22;;;16.57;100.00
25232;BME280;13176;51.140;6.290;2023-05-10T03:43:47;100122.22;;;16.19;100.00
25232;BME280;13176;51.140;6.290;2023-05-10T03:46:14;100169.19;;;16.47;100.00
25232;BME280;13176;51.140;6.290;2023-05-10T03:48:40;100169.84;;;16.52;100.00
25232;BME280;13176;51.140;6.290;2023-05-10T03:51:06;100213.84;;;16.87;100.00
25232;BME280;13176;51.140;6.290;2023-05-10T03:53:33;100206.53;;;16.75;100.00
25232;BME280;13176;51.140;6.290;2023-05-10T03:55:59;100185.38;;;16.58;100.00
25232;BME280;13176;51.140;6.290;2023-05-10T03:58:26;100081.00;;;16.00;100.00
25232;BME280;13176;51.140;6.290;2023-05-10T04:00:52;100204.47;;;16.63;100.00
25232;BME280;13176;51.140;6.290;2023-05-10T04:03:19;100133.47;;;16.03;100.00
25232;BME280;13176;51.140;6.290;2023-05-10T04:05:46;100083.41;;;15.66;100.00
25232;BME280;13176;51.140;6.290;2023-05-10T04:08:13;100198.63;;;16.56;100.00
25232;BME280;13176;51.140;6.290;2023-05-10T04:10:40;100170.56;;;16.37;100.00
25232;BME280;13176;51.140;6.290;2023-05-10T04:13:07;100183.31;;;16.26;100.00
25232;BME280;13176;51.140;6.290;2023-05-10T04:15:33;100162.53;;;16.20;100.00
25232;BME280;13176;51.140;6.290;2023-05-10T04:18:00;100198.44;;;16.41;100.00
25232;BME280;13176;51.140;6.290;2023-05-10T04:20:26;100170.56;;;16.37;100.00
25232;BME280;13176;51.140;6.290;2023-05-10T04:22:53;100173.72;;;16.25;100.00
25232;BME280;13176;51.140;6.290;2023-05-10T04:25:19;100199.81;;;16.29;100.00
25232;BME280;13176;51.140;6.290;2023-05-10T04:27:46;100195.19;;;16.36;100.00
25232;BME280;13176;51.140;6.290;2023-05-10T04:30:12;100224.97;;;16.56;100.00
25232;BME280;13176;51.140;6.290;2023-05-10T04:32:39;100201.59;;;16.49;100.00
25232;BME280;13176;51.140;6.290;2023-05-10T04:35:05;100131.34;;;16.11;100.00
25232;BME280;13176;51.140;6.290;2023-05-10T04:37:32;100126.34;;;16.05;100.00
25232;BME280;13176;51.140;6.290;2023-05-10T04:39:58;100180.47;;;16.30;100.00
25232;BME280;13176;51.140;6.290;2023-05-10T04:42:26;100184.44;;;16.20;100.00
25232;BME280;13176;51.140;6.290;2023-05-10T04:44:52;100145.88;;;16.01;100.00
25232;BME280;13176;51.140;6.290;2023-05-10T04:47:19;100207.81;;;16.28;100.00
25232;BME280;13176;51.140;6.290;2023-05-10T04:49:48;100149.63;;;15.96;100.00
25232;BME280;13176;51.140;6.290;2023-05-10T04:52:15;100160.41;;;16.09;100.00
25232;BME280;13176;51.140;6.290;2023-05-10T04:54:43;100242.16;;;16.45;100.00
25232;BME280;13176;51.140;6.290;2023-05-10T04:57:10;100156.53;;;15.98;100.00
25232;BME280;13176;51.140;6.290;2023-05-10T04:59:36;100229.91;;;16.44;100.00
25232;BME280;13176;51.140;6.290;2023-05-10T05:02:04;100236.63;;;16.51;100.00
25232;BME280;13176;51.140;6.290;2023-05-10T05:04:34;100239.13;;;16.54;100.00
25232;BME280;13176;51.140;6.290;2023-05-10T05:07:00;100257.28;;;16.60;100.00
25232;BME280;13176;51.140;6.290;2023-05-10T05:09:27;100240.31;;;16.47;100.00
25232;BME280;13176;51.140;6.290;2023-05-10T05:11:53;100245.72;;;16.44;100.00
25232;BME280;13176;51.140;6.290;2023-05-10T05:14:20;100259.94;;;16.40;100.00
25232;BME280;13176;51.140;6.290;2023-05-10T05:16:47;100162.84;;;15.74;100.00
25232;BME280;13176;51.140;6.290;2023-05-10T05:19:13;100172.28;;;15.80;100.00
25232;BME280;13176;51.140;6.290;2023-05-10T05:21:40;100185.78;;;15.91;100.00
25232;BME280;13176;51.140;6.290;2023-05-10T05:24:06;100241.44;;;16.21;100.00
25232;BME280;13176;51.140;6.290;2023-05-10T05:26:33;100250.88;;;16.27;100.00
25232;BME280;13176;51.140;6.290;2023-05-10T05:28:59;100252.56;;;16.48;100.00
25232;BME280;13176;51.140;6.290;2023-05-10T05:31:26;100210.59;;;16.05;100.00
25232;BME280;13176;51.140;6.290;2023-05-10T05:33:52;100248.00;;;16.33;100.00
25232;BME280;13176;51.140;6.290;2023-05-10T05:36:18;100265.47;;;16.54;100.00
25232;BME280;13176;51.140;6.290;2023-05-10T05:38:45;100248.34;;;16.44;100.00
25232;BME280;13176;51.140;6.290;2023-05-10T05:41:11;100281.94;;;16.59;100.00
25232;BME280;13176;51.140;6.290;2023-05-10T05:43:38;100222.69;;;16.29;100.00
25232;BME280;13176;51.140;6.290;2023-05-10T05:46:04;100279.94;;;16.64;100.00
25232;BME280;13176;51.140;6.290;2023-05-10T05:48:31;100278.22;;;16.63;100.00
25232;BME280;13176;51.140;6.290;2023-05-10T05:50:57;100228.78;;;16.29;100.00
25232;BME280;13176;51.140;6.290;2023-05-10T05:53:24;100204.69;;;16.00;100.00
25232;BME280;13176;51.140;6.290;2023-05-10T05:55:52;100231.41;;;15.91;100.00
25232;BME280;13176;51.140;6.290;2023-05-10T05:58:19;100228.38;;;16.00;100.00
25232;BME280;13176;51.140;6.290;2023-05-10T06:00:46;100283.34;;;16.47;100.00
25232;BME280;13176;51.140;6.290;2023-05-10T06:03:12;100267.22;;;16.35;100.00
25232;BME280;13176;51.140;6.290;2023-05-10T06:05:39;100213.13;;;15.88;100.00
25232;BME280;13176;51.140;6.290;2023-05-10T06:08:06;100209.56;;;15.89;100.00
25232;BME280;13176;51.140;6.290;2023-05-10T06:10:32;100297.09;;;16.34;100.00
25232;BME280;13176;51.140;6.290;2023-05-10T06:12:58;100229.81;;;16.07;100.00
25232;BME280;13176;51.140;6.290;2023-05-10T06:15:25;100292.63;;;16.36;100.00
25232;BME280;13176;51.140;6.290;2023-05-10T06:17:52;100312.75;;;16.57;100.00
25232;BME280;13176;51.140;6.290;2023-05-10T06:20:18;100225.16;;;16.13;100.00
25232;BME280;13176;51.140;6.290;2023-05-10T06:22:45;100269.63;;;16.39;100.00
25232;BME280;13176;51.140;6.290;2023-05-10T06:25:11;100310.63;;;16.65;100.00
25232;BME280;13176;51.140;6.290;2023-05-10T06:27:37;100273.94;;;16.60;100.00
25232;BME280;13176;51.140;6.290;2023-05-10T06:30:04;100312.69;;;16.77;100.00
25232;BME280;13176;51.140;6.290;2023-05-10T06:32:38;100315.38;;;16.57;100.00
25232;BME280;13176;51.140;6.290;2023-05-10T06:35:05;100246.06;;;15.97;100.00
25232;BME280;13176;51.140;6.290;2023-05-10T06:37:32;100231.81;;;16.02;100.00
25232;BME280;13176;51.140;6.290;2023-05-10T06:39:58;100246.81;;;16.00;100.00
25232;BME280;13176;51.140;6.290;2023-05-10T06:42:25;100229.75;;;15.69;100.00
25232;BME280;13176;51.140;6.290;2023-05-10T06:44:51;100248.13;;;15.90;100.00
25232;BME280;13176;51.140;6.290;2023-05-10T06:47:18;100254.69;;;16.20;100.00
25232;BME280;13176;51.140;6.290;2023-05-10T06:49:44;100319.19;;;16.50;100.00
25232;BME280;13176;51.140;6.290;2023-05-10T06:52:11;100329.59;;;16.53;100.00
25232;BME280;13176;51.140;6.290;2023-05-10T06:54:37;100331.97;;;16.59;100.00
25232;BME280;13176;51.140;6.290;2023-05-10T06:57:06;100338.16;;;16.58;100.00
25232;BME280;13176;51.140;6.290;2023-05-10T06:59:48;100265.13;;;16.21;100.00
25232;BME280;13176;51.140;6.290;2023-05-10T07:02:15;100281.53;;;16.28;100.00
25232;BME280;13176;51.140;6.290;2023-05-10T07:04:41;100276.28;;;16.28;100.00
25232;BME280;13176;51.140;6.290;2023-05-10T07:07:08;100347.75;;;16.79;100.00
25232;BME280;13176;51.140;6.290;2023-05-10T07:09:35;100231.13;;;16.17;100.00
25232;BME280;13176;51.140;6.290;2023-05-10T07:12:01;100324.69;;;16.84;100.00
25232;BME280;13176;51.140;6.290;2023-05-10T07:14:28;100330.97;;;17.00;100.00
25232;BME280;13176;51.140;6.290;2023-05-10T07:16:54;100342.09;;;17.24;100.00
25232;BME280;13176;51.140;6.290;2023-05-10T07:19:21;100257.53;;;16.74;100.00
25232;BME280;13176;51.140;6.290;2023-05-10T07:21:47;100350.00;;;17.44;98.97
25232;BME280;13176;51.140;6.290;2023-05-10T07:24:14;100324.84;;;17.54;99.83
25232;BME280;13176;51.140;6.290;2023-05-10T07:26:40;100274.69;;;17.37;98.80
25232;BME280;13176;51.140;6.290;2023-05-10T07:29:07;100280.47;;;17.62;97.20
25232;BME280;13176;51.140;6.290;2023-05-10T07:31:33;100353.22;;;17.68;94.84
25232;BME280;13176;51.140;6.290;2023-05-10T07:33:59;100235.47;;;17.12;95.25
25232;BME280;13176;51.140;6.290;2023-05-10T07:36:26;100305.94;;;17.46;95.97
25232;BME280;13176;51.140;6.290;2023-05-10T07:38:52;100264.16;;;17.37;95.67
25232;BME280;13176;51.140;6.290;2023-05-10T07:41:18;100359.88;;;17.93;94.82
25232;BME280;13176;51.140;6.290;2023-05-10T07:43:45;100359.22;;;17.71;93.64
25232;BME280;13176;51.140;6.290;2023-05-10T07:46:11;100335.88;;;17.45;93.65
25232;BME280;13176;51.140;6.290;2023-05-10T07:48:40;100314.56;;;17.12;93.05
25232;BME280;13176;51.140;6.290;2023-05-10T07:51:06;100362.22;;;17.27;91.80
25232;BME280;13176;51.140;6.290;2023-05-10T07:53:35;100358.34;;;17.71;92.33
25232;BME280;13176;51.140;6.290;2023-05-10T07:56:26;100370.59;;;17.90;90.68
25232;BME280;13176;51.140;6.290;2023-05-10T07:58:56;100305.00;;;17.64;90.91
25232;BME280;13176;51.140;6.290;2023-05-10T08:01:22;100300.78;;;17.43;89.84
25232;BME280;13176;51.140;6.290;2023-05-10T08:03:49;100359.00;;;17.57;89.39
25232;BME280;13176;51.140;6.290;2023-05-10T08:06:18;100362.94;;;17.67;89.98
25232;BME280;13176;51.140;6.290;2023-05-10T08:08:48;100353.75;;;17.57;89.98
25232;BME280;13176;51.140;6.290;2023-05-10T08:11:18;100379.34;;;17.37;90.06
25232;BME280;13176;51.140;6.290;2023-05-10T08:13:47;100373.22;;;17.36;90.98
25232;BME280;13176;51.140;6.290;2023-05-10T08:16:14;100367.16;;;17.34;91.09
25232;BME280;13176;51.140;6.290;2023-05-10T08:18:41;100383.63;;;17.39;91.86
25232;BME280;13176;51.140;6.290;2023-05-10T08:21:07;100349.22;;;17.22;92.47
25232;BME280;13176;51.140;6.290;2023-05-10T08:23:34;100357.94;;;17.24;92.46
25232;BME280;13176;51.140;6.290;2023-05-10T08:26:00;100397.59;;;17.78;92.50
25232;BME280;13176;51.140;6.290;2023-05-10T08:28:26;100396.22;;;17.70;90.35
25232;BME280;13176;51.140;6.290;2023-05-10T08:30:53;100401.03;;;17.80;91.27
25232;BME280;13176;51.140;6.290;2023-05-10T08:33:20;100305.31;;;17.03;87.96
25232;BME280;13176;51.140;6.290;2023-05-10T08:35:46;100390.78;;;17.37;89.38
25232;BME280;13176;51.140;6.290;2023-05-10T08:38:13;100387.19;;;17.75;88.90
25232;BME280;13176;51.140;6.290;2023-05-10T08:40:41;100415.22;;;18.13;89.94
25232;BME280;13176;51.140;6.290;2023-05-10T08:43:10;100330.28;;;17.51;87.67
25232;BME280;13176;51.140;6.290;2023-05-10T08:45:41;100418.56;;;17.81;86.66
25232;BME280;13176;51.140;6.290;2023-05-10T08:48:10;100423.41;;;17.72;86.72
25232;BME280;13176;51.140;6.290;2023-05-10T08:50:38;100405.44;;;17.61;86.60
25232;BME280;13176;51.140;6.290;2023-05-10T08:53:09;100405.16;;;17.49;87.54
25232;BME280;13176;51.140;6.290;2023-05-10T08:55:36;100433.19;;;17.51;87.56
25232;BME280;13176;51.140;6.290;2023-05-10T08:58:08;100435.88;;;17.12;88.96
25232;BME280;13176;51.140;6.290;2023-05-10T09:00:36;100405.03;;;17.33;87.98
25232;BME280;13176;51.140;6.290;2023-05-10T09:03:04;100353.13;;;16.96;89.56
25232;BME280;13176;51.140;6.290;2023-05-10T09:05:31;100422.00;;;17.46;89.29
25232;BME280;13176;51.140;6.290;2023-05-10T09:07:58;100437.41;;;17.55;89.70
25232;BME280;13176;51.140;6.290;2023-05-10T09:10:27;100450.81;;;17.69;89.84
25232;BME280;13176;51.140;6.290;2023-05-10T09:12:56;100448.09;;;17.52;89.61
25232;BME280;13176;51.140;6.290;2023-05-10T09:15:24;100440.03;;;17.55;89.73
25232;BME280;13176;51.140;6.290;2023-05-10T09:17:52;100440.81;;;17.76;89.57
25232;BME280;13176;51.140;6.290;2023-05-10T09:20:18;100394.38;;;17.53;88.45
25232;BME280;13176;51.140;6.290;2023-05-10T09:22:45;100355.81;;;17.32;88.42
25232;BME280;13176;51.140;6.290;2023-05-10T09:25:13;100462.63;;;18.16;87.13
25232;BME280;13176;51.140;6.290;2023-05-10T09:27:44;100465.69;;;18.07;87.39
25232;BME280;13176;51.140;6.290;2023-05-10T09:30:24;100420.91;;;17.87;86.49
25232;BME280;13176;51.140;6.290;2023-05-10T09:32:51;100393.13;;;17.23;87.89
25232;BME280;13176;51.140;6.290;2023-05-10T09:35:19;100341.81;;;16.94;87.05
25232;BME280;13176;51.140;6.290;2023-05-10T09:37:52;100456.00;;;17.52;87.33
25232;BME280;13176;51.140;6.290;2023-05-10T09:40:22;100480.34;;;17.77;86.54
25232;BME280;13176;51.140;6.290;2023-05-10T09:43:00;100438.25;;;17.37;86.29
25232;BME280;13176;51.140;6.290;2023-05-10T09:45:29;100396.13;;;17.16;85.67
25232;BME280;13176;51.140;6.290;2023-05-10T09:47:56;100474.06;;;17.61;85.98
25232;BME280;13176;51.140;6.290;2023-05-10T09:50:23;100459.94;;;17.99;85.58
25232;BME280;13176;51.140;6.290;2023-05-10T09:52:51;100482.22;;;17.75;85.38
25232;BME280;13176;51.140;6.290;2023-05-10T09:55:23;100479.56;;;17.75;85.03
25232;BME280;13176;51.140;6.290;2023-05-10T09:58:01;100462.66;;;17.79;85.08
25232;BME280;13176;51.140;6.290;2023-05-10T10:00:28;100451.97;;;17.82;84.20
25232;BME280;13176;51.140;6.290;2023-05-10T10:03:00;100471.47;;;18.15;84.64
25232;BME280;13176;51.140;6.290;2023-05-10T10:05:35;100476.44;;;18.21;83.49
25232;BME280;13176;51.140;6.290;2023-05-10T10:08:04;100419.28;;;18.20;82.00
25232;BME280;13176;51.140;6.290;2023-05-10T10:10:32;100456.94;;;18.59;81.50
25232;BME280;13176;51.140;6.290;2023-05-10T10:12:59;100465.50;;;18.64;80.49
25232;BME280;13176;51.140;6.290;2023-05-10T10:15:29;100467.38;;;18.62;79.10
25232;BME280;13176;51.140;6.290;2023-05-10T10:17:55;100477.16;;;18.43;79.57
25232;BME280;13176;51.140;6.290;2023-05-10T10:20:22;100462.19;;;18.25;78.47
25232;BME280;13176;51.140;6.290;2023-05-10T10:22:49;100477.91;;;18.28;78.57
25232;BME280;13176;51.140;6.290;2023-05-10T10:25:16;100379.47;;;17.52;78.05
25232;BME280;13176;51.140;6.290;2023-05-10T10:30:35;100477.59;;;18.34;77.31
25232;BME280;13176;51.140;6.290;2023-05-10T10:33:10;100485.88;;;18.45;75.87
25232;BME280;13176;51.140;6.290;2023-05-10T10:35:54;100467.47;;;18.25;77.32
25232;BME280;13176;51.140;6.290;2023-05-10T10:38:21;100398.03;;;17.69;77.78
25232;BME280;13176;51.140;6.290;2023-05-10T10:41:01;100419.81;;;17.91;78.03
25232;BME280;13176;51.140;6.290;2023-05-10T10:43:28;100486.16;;;18.39;79.22
25232;BME280;13176;51.140;6.290;2023-05-10T10:46:16;100453.72;;;18.54;77.51
25232;BME280;13176;51.140;6.290;2023-05-10T10:49:07;100457.72;;;18.61;76.02
25232;BME280;13176;51.140;6.290;2023-05-10T10:55:14;100487.44;;;18.49;77.12
25232;BME280;13176;51.140;6.290;2023-05-10T10:57:49;100483.03;;;18.31;76.49
25232;BME280;13176;51.140;6.290;2023-05-10T11:02:46;100475.59;;;18.39;77.05
25232;BME280;13176;51.140;6.290;2023-05-10T11:07:54;100408.69;;;18.03;76.29
25232;BME280;13176;51.140;6.290;2023-05-10T11:10:22;100412.41;;;18.35;77.26
25232;BME280;13176;51.140;6.290;2023-05-10T11:15:19;100406.88;;;18.39;75.02
25232;BME280;13176;51.140;6.290;2023-05-10T11:17:47;100427.13;;;18.57;75.00
25232;BME280;13176;51.140;6.290;2023-05-10T11:20:18;100466.06;;;18.70;75.84
25232;BME280;13176;51.140;6.290;2023-05-10T11:22:53;100475.09;;;18.66;76.15
25232;BME280;13176;51.140;6.290;2023-05-10T11:25:20;100494.31;;;18.87;76.36
25232;BME280;13176;51.140;6.290;2023-05-10T11:27:47;100505.78;;;18.69;77.48
25232;BME280;13176;51.140;6.290;2023-05-10T11:30:14;100514.56;;;18.52;78.36
25232;BME280;13176;51.140;6.290;2023-05-10T11:32:41;100464.34;;;18.36;78.72
25232;BME280;13176;51.140;6.290;2023-05-10T11:35:09;100472.47;;;18.31;78.96
25232;BME280;13176;51.140;6.290;2023-05-10T11:37:37;100498.41;;;18.58;79.52
25232;BME280;13176;51.140;6.290;2023-05-10T11:40:08;100455.47;;;18.37;79.77
25232;BME280;13176;51.140;6.290;2023-05-10T11:42:39;100442.75;;;18.26;79.31
25232;BME280;13176;51.140;6.290;2023-05-10T11:45:06;100407.13;;;17.99;79.25
25232;BME280;13176;51.140;6.290;2023-05-10T11:47:32;100504.72;;;18.56;79.28
25232;BME280;13176;51.140;6.290;2023-05-10T11:49:59;100515.13;;;18.76;78.64
25232;BME280;13176;51.140;6.290;2023-05-10T11:52:26;100473.31;;;18.84;78.59
25232;BME280;13176;51.140;6.290;2023-05-10T11:54:53;100419.16;;;18.74;77.98
25232;BME280;13176;51.140;6.290;2023-05-10T11:57:20;100478.59;;;19.18;77.47
25232;BME280;13176;51.140;6.290;2023-05-10T11:59:47;100416.19;;;18.97;75.60
25232;BME280;13176;51.140;6.290;2023-05-10T12:02:13;100490.66;;;19.55;74.11
25232;BME280;13176;51.140;6.290;2023-05-10T12:04:41;100442.44;;;19.34;74.90
25232;BME280;13176;51.140;6.290;2023-05-10T12:07:07;100428.09;;;19.38;73.23
25232;BME280;13176;51.140;6.290;2023-05-10T12:09:34;100455.25;;;19.26;72.45
25232;BME280;13176;51.140;6.290;2023-05-10T12:12:09;100486.47;;;19.52;72.39
25232;BME280;13176;51.140;6.290;2023-05-10T12:14:36;100504.69;;;19.41;71.61
25232;BME280;13176;51.140;6.290;2023-05-10T12:17:02;100500.75;;;19.64;73.20
25232;BME280;13176;51.140;6.290;2023-05-10T12:19:37;100513.72;;;19.53;71.61
25232;BME280;13176;51.140;6.290;2023-05-10T12:22:06;100483.16;;;19.31;71.14
25232;BME280;13176;51.140;6.290;2023-05-10T12:24:34;100437.81;;;19.05;71.36
25232;BME280;13176;51.140;6.290;2023-05-10T12:27:05;100479.47;;;19.34;72.77
25232;BME280;13176;51.140;6.290;2023-05-10T12:29:33;100445.00;;;18.86;73.15
25232;BME280;13176;51.140;6.290;2023-05-10T12:31:59;100513.47;;;19.26;73.11
25232;BME280;13176;51.140;6.290;2023-05-10T12:34:30;100504.59;;;19.27;72.30
25232;BME280;13176;51.140;6.290;2023-05-10T12:36:58;100506.88;;;19.50;71.79
25232;BME280;13176;51.140;6.290;2023-05-10T12:39:24;100497.38;;;19.46;71.68
25232;BME280;13176;51.140;6.290;2023-05-10T12:41:52;100501.94;;;19.74;70.73
25232;BME280;13176;51.140;6.290;2023-05-10T12:44:21;100427.31;;;19.36;70.01
25232;BME280;13176;51.140;6.290;2023-05-10T12:46:50;100430.66;;;19.24;70.46
25232;BME280;13176;51.140;6.290;2023-05-10T12:49:16;100411.19;;;19.25;71.72
25232;BME280;13176;51.140;6.290;2023-05-10T12:51:45;100409.66;;;19.36;69.75
25232;BME280;13176;51.140;6.290;2023-05-10T12:54:11;100439.44;;;19.72;69.68
25232;BME280;13176;51.140;6.290;2023-05-10T12:56:38;100443.84;;;19.71;68.18
25232;BME280;13176;51.140;6.290;2023-05-10T12:59:06;100485.41;;;19.86;67.52
25232;BME280;13176;51.140;6.290;2023-05-10T13:01:33;100502.72;;;20.24;68.17
25232;BME280;13176;51.140;6.290;2023-05-10T13:03:59;100502.56;;;20.12;66.63
25232;BME280;13176;51.140;6.290;2023-05-10T13:06:26;100445.06;;;19.97;65.79
25232;BME280;13176;51.140;6.290;2023-05-10T13:08:52;100507.16;;;20.39;65.03
25232;BME280;13176;51.140;6.290;2023-05-10T13:11:19;100533.56;;;20.25;63.86
25232;BME280;13176;51.140;6.290;2023-05-10T13:13:46;100517.94;;;20.36;63.89
25232;BME280;13176;51.140;6.290;2023-05-10T13:16:12;100514.34;;;20.37;64.17